Time;durP1;ratioP1;P1;durP2;ratioP2;P2;SDS_P1;SDS_P2;PMS_P1;PMS_P2;Temp;Humidity;BMP_temperature;BMP_pressure;BME280_temperature;BME280_humidity;BME280_pressure;Samples;Min_cycle;Max_cycle;Signal;HPM_P1;HPM_P2
2022/01/27 00:04:48;;;;;;;7.55;3.03;;;-0.10;99.90;;;;;;5014056;28;20033;-73
2022/01/27 00:07:14;;;;;;;9.48;2.90;;;-0.10;99.90;;;;;;5013937;28;20026;-73
2022/01/27 00:09:46;;;;;;;5.18;2.35;;;-0.10;99.90;;;;;;5013929;28;20514;-73
2022/01/27 00:12:17;;;;;;;6.57;2.38;;;-0.10;99.90;;;;;;5013808;28;20437;-74
2022/01/27 00:14:46;;;;;;;;;;;-0.10;99.90;;;;;;5014645;28;20037;-73
2022/01/27 00:17:15;;;;;;;5.18;1.73;;;-0.10;99.90;;;;;;5013992;28;19987;-74
2022/01/27 00:19:42;;;;;;;5.90;2.28;;;-0.10;99.90;;;;;;5012452;28;20041;-73
2022/01/27 00:22:08;;;;;;;7.22;2.10;;;-0.20;99.90;;;;;;5013840;28;20049;-73
2022/01/27 00:24:34;;;;;;;3.53;1.40;;;-0.20;99.90;;;;;;5013659;28;20060;-73
2022/01/27 00:27:00;;;;;;;3.22;1.75;;;-0.20;99.90;;;;;;5013472;28;20030;-73
2022/01/27 00:29:26;;;;;;;4.90;1.60;;;-0.30;99.90;;;;;;5013859;28;20022;-73
2022/01/27 00:31:51;;;;;;;5.38;1.60;;;-0.30;99.90;;;;;;5012249;28;20393;-73
2022/01/27 00:34:17;;;;;;;4.10;1.80;;;-0.30;99.90;;;;;;5013598;28;20029;-73
2022/01/27 00:36:43;;;;;;;2.38;1.70;;;-0.50;99.90;;;;;;5013069;28;20088;-73
2022/01/27 00:39:09;;;;;;;2.95;1.80;;;-0.50;99.90;;;;;;5013257;28;20133;-73
2022/01/27 00:41:34;;;;;;;5.38;1.83;;;-0.50;99.90;;;;;;5013596;28;20109;-73
2022/01/27 00:44:02;;;;;;;2.92;1.70;;;-0.60;99.90;;;;;;5013322;28;20474;-73
2022/01/27 00:46:30;;;;;;;4.25;1.70;;;-0.60;99.90;;;;;;5012158;28;20421;-73
2022/01/27 00:48:56;;;;;;;3.25;1.60;;;-0.60;99.90;;;;;;5013422;28;20018;-73
2022/01/27 00:51:24;;;;;;;2.63;1.75;;;-0.60;99.90;;;;;;5013399;28;20029;-73
2022/01/27 00:54:03;;;;;;;4.68;1.55;;;-0.50;99.90;;;;;;5013255;28;20109;-73
2022/01/27 00:57:18;;;;;;;3.13;1.40;;;-0.50;99.90;;;;;;5013003;28;20104;-73
2022/01/27 00:59:48;;;;;;;3.88;1.63;;;-0.40;99.90;;;;;;5009803;28;20052;-73
2022/01/27 01:02:27;;;;;;;2.92;1.38;;;-0.40;99.90;;;;;;5013120;28;20105;-73
2022/01/27 01:05:57;;;;;;;2.17;1.45;;;-0.40;99.90;;;;;;5012984;28;20121;-73
2022/01/27 01:07:45;;;;;;;2.85;1.55;;;-0.40;99.90;;;;;;5009683;28;20119;-74
2022/01/27 01:15:34;;;;;;;3.10;1.45;;;-0.60;99.90;;;;;;5013117;28;20512;-73
2022/01/27 01:31:42;;;;;;;4.30;1.38;;;-0.80;99.90;;;;;;5012530;28;20040;-72
2022/01/27 01:34:21;;;;;;;2.37;1.70;;;-0.90;99.90;;;;;;5012505;28;20025;-73
2022/01/27 01:36:57;;;;;;;7.75;2.72;;;-0.90;99.90;;;;;;5012201;28;20268;-72
2022/01/27 01:39:27;;;;;;;3.22;1.80;;;-0.90;99.90;;;;;;5012300;28;20473;-73
2022/01/27 01:41:54;;;;;;;3.50;1.85;;;-0.90;99.90;;;;;;5012311;28;20072;-73
2022/01/27 01:44:20;;;;;;;3.90;1.70;;;-0.90;99.90;;;;;;5012192;28;20030;-71
2022/01/27 01:46:46;;;;;;;2.70;1.90;;;-0.80;99.90;;;;;;5012639;28;20092;-72
2022/01/27 01:49:12;;;;;;;2.88;1.73;;;-0.80;99.90;;;;;;5012229;28;20651;-71
2022/01/27 01:51:39;;;;;;;4.40;1.80;;;-0.90;99.90;;;;;;5012219;28;20079;-75
2022/01/27 01:54:06;;;;;;;3.28;1.52;;;-0.90;99.90;;;;;;5012241;28;20033;-74
2022/01/27 01:56:34;;;;;;;3.50;1.60;;;-0.90;99.90;;;;;;5012261;28;20053;-73
2022/01/27 01:58:59;;;;;;;4.65;1.70;;;-0.90;99.90;;;;;;5012339;28;20026;-73
2022/01/27 02:01:25;;;;;;;3.85;2.15;;;-0.80;99.90;;;;;;5012146;28;20022;-73
2022/01/27 02:03:51;;;;;;;3.95;1.40;;;-0.80;99.90;;;;;;5012295;28;20079;-73
2022/01/27 02:06:33;;;;;;;3.38;1.67;;;-0.70;99.90;;;;;;5012108;28;20026;-73
2022/01/27 02:19:43;;;;;;;3.53;1.95;;;-0.60;99.90;;;;;;5012044;28;20073;-73
2022/01/27 02:22:09;;;;;;;2.45;1.70;;;-0.60;99.90;;;;;;5011857;28;20022;-73
2022/01/27 02:56:05;;;;;;;2.85;1.73;;;-0.80;99.90;;;;;;5014809;28;20046;-74
2022/01/27 02:58:30;;;;;;;2.80;2.00;;;-0.80;99.90;;;;;;5015173;28;20040;-74
2022/01/27 03:00:56;;;;;;;3.03;1.67;;;-0.80;99.90;;;;;;5015663;28;20058;-73
2022/01/27 03:37:03;;;;;;;2.67;1.75;;;-0.90;99.90;;;;;;6136618;22;20298;-75
2022/01/27 03:39:29;;;;;;;4.03;2.42;;;-0.90;99.90;;;;;;5051916;28;20041;-75
2022/01/27 03:41:56;;;;;;;3.33;1.98;;;-1.00;99.90;;;;;;5054618;28;20036;-75
2022/01/27 03:44:23;;;;;;;2.72;2.33;;;-1.00;99.90;;;;;;5053999;28;20039;-75
2022/01/27 03:46:50;;;;;;;4.63;2.47;;;-1.00;99.90;;;;;;5054122;28;20537;-75
2022/01/27 03:49:16;;;;;;;4.75;2.47;;;-1.00;99.90;;;;;;5053172;28;20068;-75
2022/01/27 03:51:45;;;;;;;3.75;2.40;;;-1.00;99.90;;;;;;5054058;28;20021;-78
2022/01/27 03:54:10;;;;;;;6.30;2.28;;;-1.10;99.90;;;;;;5054082;28;20033;-78
2022/01/27 03:56:36;;;;;;;3.90;1.83;;;-1.10;99.90;;;;;;5054145;28;20590;-79
2022/01/27 03:59:02;;;;;;;2.97;2.10;;;-1.10;99.90;;;;;;5054003;28;20040;-80
2022/01/27 04:01:29;;;;;;;5.03;2.08;;;-1.00;99.90;;;;;;5053987;28;20111;-79
2022/01/27 04:03:57;;;;;;;5.28;2.50;;;-1.00;99.90;;;;;;5053852;28;20040;-79
2022/01/27 04:06:32;;;;;;;4.82;2.63;;;-1.00;99.90;;;;;;5053994;28;20502;-80
2022/01/27 04:08:58;;;;;;;2.63;2.10;;;-1.00;99.90;;;;;;5053865;28;20040;-77
2022/01/27 04:11:24;;;;;;;3.75;2.25;;;-1.00;99.90;;;;;;5054618;28;20025;-77
2022/01/27 04:13:49;;;;;;;4.93;2.33;;;-1.00;99.90;;;;;;5053794;28;20029;-77
2022/01/27 04:16:15;;;;;;;4.00;2.60;;;-1.10;99.90;;;;;;5053999;28;20167;-77
2022/01/27 04:18:41;;;;;;;2.85;2.22;;;-1.10;99.90;;;;;;5051979;28;20028;-77
2022/01/27 04:21:06;;;;;;;3.15;2.17;;;-1.10;99.90;;;;;;5053831;28;20033;-77
2022/01/27 04:23:32;;;;;;;2.80;1.95;;;-1.10;99.90;;;;;;5053253;28;20021;-79
2022/01/27 04:25:58;;;;;;;4.18;2.17;;;-1.10;99.90;;;;;;5053816;28;20036;-77
2022/01/27 04:28:29;;;;;;;6.25;1.92;;;-1.20;99.90;;;;;;5053364;28;20534;-76
2022/01/27 04:30:56;;;;;;;2.75;2.20;;;-1.30;99.90;;;;;;5053339;28;20516;-77
2022/01/27 04:33:25;;;;;;;2.70;1.88;;;-1.30;99.90;;;;;;5053214;28;20031;-73
2022/01/27 04:35:54;;;;;;;3.15;1.75;;;-1.30;99.90;;;;;;5053115;28;20111;-73
2022/01/27 04:45:59;;;;;;;3.28;1.92;;;-1.20;99.90;;;;;;5052796;28;20100;-79
2022/01/27 04:48:28;;;;;;;3.40;2.08;;;-1.20;99.90;;;;;;5052812;28;20495;-77
2022/01/27 04:50:57;;;;;;;3.42;1.80;;;-1.10;99.90;;;;;;5051701;28;20085;-76
2022/01/27 04:53:30;;;;;;;3.10;1.75;;;-1.20;99.90;;;;;;5052709;28;20487;-77
2022/01/27 04:55:58;;;;;;;2.20;1.80;;;-1.20;99.90;;;;;;5052796;28;20036;-78
2022/01/27 04:58:31;;;;;;;2.30;1.77;;;-1.20;99.90;;;;;;5052870;28;20028;-78
2022/01/27 05:00:59;;;;;;;2.85;1.70;;;-1.20;99.90;;;;;;5053027;28;20090;-78
2022/01/27 05:06:00;;;;;;;2.33;1.67;;;-1.20;99.90;;;;;;5052649;28;20024;-78
2022/01/27 05:08:25;;;;;;;2.88;1.50;;;-1.20;99.90;;;;;;5052518;28;20028;-77
2022/01/27 05:11:00;;;;;;;3.22;1.70;;;-1.10;99.90;;;;;;5052377;28;20464;-76
2022/01/27 05:13:28;;;;;;;2.20;1.70;;;-1.10;99.90;;;;;;5052485;28;20025;-76
2022/01/27 05:15:54;;;;;;;5.15;1.90;;;-1.10;99.90;;;;;;5052323;28;20037;-76
2022/01/27 05:18:21;;;;;;;3.00;1.40;;;-1.10;99.90;;;;;;5052482;28;20095;-76
2022/01/27 05:20:47;;;;;;;2.38;1.70;;;-1.20;99.90;;;;;;5052415;28;20112;-76
2022/01/27 05:23:13;;;;;;;2.92;1.60;;;-1.20;99.90;;;;;;5052302;28;20036;-77
2022/01/27 05:25:40;;;;;;;2.60;1.30;;;-1.30;99.90;;;;;;5052436;28;20056;-76
2022/01/27 05:28:07;;;;;;;2.15;1.42;;;-1.40;99.90;;;;;;5052164;28;20021;-76
2022/01/27 05:30:34;;;;;;;1.40;1.30;;;-1.40;99.90;;;;;;5052163;28;20031;-73
2022/01/27 05:33:00;;;;;;;3.15;1.50;;;-1.40;99.90;;;;;;5052510;28;20108;-75
2022/01/27 05:35:25;;;;;;;2.55;1.50;;;-1.50;99.90;;;;;;5052192;28;20128;-73
2022/01/27 05:37:51;;;;;;;1.90;1.35;;;-1.50;99.90;;;;;;5051763;28;20041;-70
2022/01/27 05:40:17;;;;;;;3.00;1.50;;;-1.50;99.90;;;;;;5051552;28;20479;-70
2022/01/27 05:42:43;;;;;;;1.35;1.17;;;-1.30;99.90;;;;;;5051550;28;20033;-71
2022/01/27 05:45:09;;;;;;;1.50;1.30;;;-0.90;99.90;;;;;;5051476;28;20112;-69
2022/01/27 05:47:35;;;;;;;1.70;1.23;;;-1.00;99.90;;;;;;5051067;28;20021;-70
2022/01/27 05:50:00;;;;;;;1.50;1.40;;;-1.10;99.90;;;;;;5048652;28;20493;-72
2022/01/27 05:52:26;;;;;;;3.88;1.70;;;-1.30;99.90;;;;;;5050629;28;20017;-69
2022/01/27 05:54:52;;;;;;;2.40;1.50;;;-1.40;99.90;;;;;;5050842;28;20017;-69
2022/01/27 05:57:17;;;;;;;2.13;1.52;;;-1.40;99.90;;;;;;5046958;28;20427;-73
2022/01/27 05:59:43;;;;;;;2.95;1.35;;;-1.50;99.90;;;;;;5047768;28;20041;-74
2022/01/27 06:02:09;;;;;;;1.60;1.40;;;-1.50;99.90;;;;;;5050906;28;20025;-73
2022/01/27 06:04:34;;;;;;;4.13;1.60;;;-1.60;99.90;;;;;;5050563;28;20033;-74
2022/01/27 06:07:00;;;;;;;4.82;1.40;;;-1.70;99.90;;;;;;5051095;28;20017;-70
2022/01/27 06:09:26;;;;;;;1.63;1.33;;;-1.70;99.90;;;;;;5051231;28;20115;-71
2022/01/27 06:11:52;;;;;;;1.65;1.48;;;-1.70;99.90;;;;;;5048511;28;20017;-70
2022/01/27 06:14:18;;;;;;;1.50;1.33;;;-1.70;99.90;;;;;;5048514;28;20025;-70
2022/01/27 06:16:46;;;;;;;1.55;1.25;;;-1.70;99.90;;;;;;5050711;28;20508;-70
2022/01/27 06:19:13;;;;;;;2.33;1.63;;;-1.70;99.90;;;;;;5050745;28;20464;-70
2022/01/27 06:21:40;;;;;;;2.47;1.77;;;-1.70;99.90;;;;;;5051311;28;20033;-72
2022/01/27 06:24:06;;;;;;;1.98;1.38;;;-1.70;99.90;;;;;;5050598;28;20033;-72
2022/01/27 06:26:32;;;;;;;2.13;1.58;;;-1.80;99.90;;;;;;5051616;28;20036;-81
2022/01/27 06:28:58;;;;;;;2.78;1.40;;;-1.80;99.90;;;;;;5051792;28;20029;-81
2022/01/27 06:31:24;;;;;;;1.88;1.40;;;-0.90;99.90;;;;;;5051576;28;20499;-80
2022/01/27 06:33:50;;;;;;;20.08;6.28;;;0.30;99.90;;;;;;5051223;28;20020;-80
2022/01/27 06:36:15;;;;;;;54.63;14.40;;;1.20;99.90;;;;;;5051557;28;20017;-80
2022/01/27 06:38:41;;;;;;;9.23;3.53;;;1.80;99.90;;;;;;5051086;28;20111;-81
2022/01/27 06:41:07;;;;;;;3.45;1.80;;;2.10;99.90;;;;;;5051437;28;20376;-80
2022/01/27 06:43:33;;;;;;;3.00;1.60;;;2.40;99.90;;;;;;5051620;28;20055;-81
2022/01/27 06:45:58;;;;;;;3.60;1.30;;;2.70;99.90;;;;;;5051538;28;20550;-81
2022/01/27 06:48:24;;;;;;;1.83;1.48;;;3.00;99.90;;;;;;5051633;28;20027;-82
2022/01/27 06:50:54;;;;;;;2.08;1.20;;;3.20;99.90;;;;;;5051543;28;20025;-71
2022/01/27 06:53:21;;;;;;;1.90;1.20;;;3.20;99.90;;;;;;5051737;28;20025;-71
2022/01/27 06:55:47;;;;;;;3.55;1.40;;;2.40;99.90;;;;;;5051601;28;20397;-72
2022/01/27 06:58:13;;;;;;;1.73;1.45;;;1.50;99.90;;;;;;5051560;28;20022;-72
2022/01/27 07:00:38;;;;;;;1.90;1.48;;;1.00;99.90;;;;;;5051256;28;20025;-72
2022/01/27 07:03:04;;;;;;;2.22;1.60;;;0.50;99.90;;;;;;5051675;28;20025;-73
2022/01/27 07:05:34;;;;;;;2.33;1.40;;;0.10;99.90;;;;;;5051015;28;20614;-73
2022/01/27 07:08:00;;;;;;;5.03;1.65;;;-0.20;99.90;;;;;;5051288;28;20032;-72
2022/01/27 07:10:27;;;;;;;2.75;1.40;;;-0.30;99.90;;;;;;5053027;28;20070;-71
2022/01/27 07:12:53;;;;;;;3.63;2.00;;;-0.10;99.90;;;;;;5054601;28;20159;-72
2022/01/27 07:15:20;;;;;;;3.22;1.55;;;0.30;99.90;;;;;;5054742;28;20495;-73
2022/01/27 07:17:47;;;;;;;2.25;1.80;;;0.00;99.90;;;;;;5047022;28;20052;-73
2022/01/27 07:20:13;;;;;;;2.63;1.70;;;-0.40;99.90;;;;;;5049450;28;20024;-73
2022/01/27 07:22:39;;;;;;;1.73;1.48;;;-0.70;99.90;;;;;;5054283;28;20029;-69
2022/01/27 07:25:06;;;;;;;1.90;1.50;;;-0.90;99.90;;;;;;5054889;28;20385;-69
2022/01/27 07:27:33;;;;;;;2.90;1.50;;;-0.90;99.90;;;;;;5054482;28;20029;-69
2022/01/27 07:30:00;;;;;;;1.77;1.63;;;-0.60;99.90;;;;;;5054182;28;20064;-72
2022/01/27 07:32:26;;;;;;;25.10;8.95;;;-0.80;99.90;;;;;;5054671;28;20036;-73
2022/01/27 07:34:51;;;;;;;132.18;58.30;;;-1.00;99.90;;;;;;5054162;28;20033;-73
2022/01/27 07:37:18;;;;;;;20.25;10.95;;;-1.10;99.90;;;;;;5054012;28;20045;-73
2022/01/27 07:39:44;;;;;;;3.67;2.42;;;-1.20;99.90;;;;;;5054301;28;20068;-74
2022/01/27 07:42:09;;;;;;;2.65;1.70;;;-1.20;99.90;;;;;;5054234;28;20102;-73
2022/01/27 07:44:35;;;;;;;2.35;1.73;;;-1.30;99.90;;;;;;5054400;28;20071;-73
2022/01/27 07:47:02;;;;;;;1.95;1.55;;;-1.40;99.90;;;;;;5054128;28;20025;-76
2022/01/27 07:49:28;;;;;;;4.30;2.60;;;-0.50;99.90;;;;;;5053911;28;20032;-77
2022/01/27 07:51:55;;;;;;;2.67;1.85;;;-0.30;99.90;;;;;;5054059;28;20033;-75
2022/01/27 07:54:20;;;;;;;3.78;1.88;;;-0.50;99.90;;;;;;5053908;28;20465;-79
2022/01/27 07:56:46;;;;;;;7.88;6.40;;;-0.80;99.90;;;;;;5053736;28;20079;-74
2022/01/27 07:59:12;;;;;;;3.30;3.00;;;-0.70;99.90;;;;;;5053830;28;20075;-78
2022/01/27 08:01:38;;;;;;;2.97;2.28;;;0.60;99.90;;;;;;5050617;28;20095;-78
2022/01/27 08:04:04;;;;;;;2.10;1.80;;;1.60;99.90;;;;;;5051825;28;20029;-78
2022/01/27 08:06:29;;;;;;;3.78;1.77;;;2.20;99.90;;;;;;5053815;28;20094;-70
2022/01/27 08:08:55;;;;;;;5.22;2.25;;;2.70;99.90;;;;;;5053205;28;20047;-69
2022/01/27 08:11:21;;;;;;;4.40;1.52;;;3.00;99.90;;;;;;5053644;28;20033;-70
2022/01/27 08:13:47;;;;;;;2.08;1.52;;;3.30;99.90;;;;;;5053293;28;20033;-67
2022/01/27 08:16:13;;;;;;;4.53;1.85;;;4.50;99.90;;;;;;5053417;28;20051;-70
2022/01/27 08:18:38;;;;;;;1.95;1.58;;;5.40;99.90;;;;;;5053128;28;20021;-74
2022/01/27 08:21:04;;;;;;;2.35;1.80;;;5.10;99.90;;;;;;5053370;28;20029;-74
2022/01/27 08:23:30;;;;;;;4.22;2.28;;;3.80;99.90;;;;;;5035634;28;20021;-73
2022/01/27 08:26:08;;;;;;;9.85;5.18;;;2.60;99.90;;;;;;5052150;28;20036;-74
2022/01/27 08:28:40;;;;;;;3.60;1.75;;;1.80;99.90;;;;;;5053685;28;20033;-73
2022/01/27 08:31:06;;;;;;;4.25;2.42;;;1.70;99.90;;;;;;5053629;28;20071;-73
2022/01/27 08:33:33;;;;;;;2.85;2.45;;;3.90;99.90;;;;;;5053398;28;20431;-73
2022/01/27 08:36:00;;;;;;;3.10;2.25;;;3.80;99.90;;;;;;5053355;28;20028;-73
2022/01/27 08:38:27;;;;;;;2.75;2.00;;;3.10;99.90;;;;;;5052899;28;20488;-74
2022/01/27 08:40:53;;;;;;;4.00;2.35;;;2.40;99.90;;;;;;5053115;28;20029;-74
2022/01/27 08:43:19;;;;;;;3.33;2.40;;;1.90;99.90;;;;;;5053112;28;20380;-74
2022/01/27 08:45:46;;;;;;;2.97;1.95;;;1.50;99.90;;;;;;5052684;28;20503;-74
2022/01/27 08:48:17;;;;;;;5.60;2.10;;;1.20;99.90;;;;;;5052610;28;20051;-74
2022/01/27 08:50:50;;;;;;;4.85;2.42;;;1.00;99.90;;;;;;5052615;28;20576;-73
2022/01/27 08:53:16;;;;;;;3.42;1.98;;;0.80;99.90;;;;;;5052521;28;20033;-73
2022/01/27 08:55:44;;;;;;;3.15;1.63;;;0.60;99.90;;;;;;5052524;28;20025;-74
2022/01/27 08:58:11;;;;;;;5.65;2.25;;;0.90;99.90;;;;;;5052721;28;20025;-73
2022/01/27 09:00:36;;;;;;;4.93;2.33;;;2.50;99.90;;;;;;5052721;28;20017;-70
2022/01/27 09:03:03;;;;;;;7.72;2.78;;;2.20;99.90;;;;;;5052444;28;20105;-69
2022/01/27 09:05:29;;;;;;;3.60;2.67;;;1.60;99.90;;;;;;5052534;28;20025;-70
2022/01/27 09:07:57;;;;;;;5.57;3.10;;;1.10;99.90;;;;;;5051219;28;20017;-69
2022/01/27 09:10:26;;;;;;;3.42;2.40;;;0.80;99.90;;;;;;5052531;28;20028;-70
2022/01/27 09:12:52;;;;;;;49.65;23.23;;;0.60;99.90;;;;;;5052529;28;20121;-69
2022/01/27 09:15:17;;;;;;;8.43;5.00;;;0.40;99.90;;;;;;5052322;28;20535;-69
2022/01/27 09:17:43;;;;;;;4.22;3.22;;;0.20;99.90;;;;;;5052309;28;20024;-70
2022/01/27 09:20:11;;;;;;;4.95;2.75;;;0.00;99.90;;;;;;5051815;28;20033;-74
2022/01/27 09:22:37;;;;;;;4.03;2.70;;;-0.10;99.90;;;;;;5052433;28;20029;-70
2022/01/27 09:25:19;;;;;;;5.95;4.13;;;-0.20;99.90;;;;;;5052015;28;20040;-70
2022/01/27 09:27:46;;;;;;;3.03;2.63;;;-0.30;99.90;;;;;;5052125;28;20064;-70
2022/01/27 09:30:15;;;;;;;5.78;3.20;;;-0.50;99.90;;;;;;5052153;28;20033;-70
2022/01/27 09:32:41;;;;;;;5.03;3.10;;;-0.50;99.90;;;;;;5051796;28;20108;-70
2022/01/27 09:35:07;;;;;;;4.50;2.60;;;-0.50;99.90;;;;;;5052368;28;20032;-76
2022/01/27 09:37:33;;;;;;;4.05;2.80;;;-0.60;99.90;;;;;;5051853;28;20404;-76
2022/01/27 09:39:59;;;;;;;5.50;3.17;;;-0.60;99.90;;;;;;5051694;28;20033;-76
2022/01/27 09:42:28;;;;;;;7.80;4.00;;;-0.60;99.90;;;;;;5052382;28;20043;-75
2022/01/27 09:44:54;;;;;;;35.47;17.63;;;-0.70;99.90;;;;;;5051845;28;20033;-76
2022/01/27 09:47:25;;;;;;;7.60;5.18;;;-0.60;99.90;;;;;;5051690;28;20111;-75
2022/01/27 09:50:03;;;;;;;5.97;3.35;;;-0.70;99.90;;;;;;5050598;28;20035;-74
2022/01/27 09:52:29;;;;;;;4.85;3.25;;;-0.70;99.90;;;;;;5052392;28;20212;-74
2022/01/27 09:54:54;;;;;;;5.93;3.13;;;-0.80;99.90;;;;;;5051343;28;20114;-75
2022/01/27 09:57:20;;;;;;;3.50;2.83;;;-0.80;99.90;;;;;;5051646;28;20498;-75
2022/01/27 09:59:46;;;;;;;5.18;2.88;;;-0.90;99.90;;;;;;5051840;28;20102;-74
2022/01/27 10:02:18;;;;;;;4.80;3.67;;;-0.90;99.90;;;;;;5051894;28;20132;-75
2022/01/27 10:04:48;;;;;;;6.35;3.45;;;-0.90;99.90;;;;;;5051593;28;20044;-74
2022/01/27 10:07:20;;;;;;;5.07;3.25;;;-1.00;99.90;;;;;;5051555;28;20021;-74
2022/01/27 10:09:56;;;;;;;5.07;3.05;;;-0.90;99.90;;;;;;5051246;28;20476;-74
2022/01/27 10:12:31;;;;;;;8.88;3.00;;;-0.90;99.90;;;;;;5051743;28;20106;-68
2022/01/27 10:14:59;;;;;;;4.70;3.15;;;-0.90;99.90;;;;;;5051692;28;20028;-70
2022/01/27 10:17:25;;;;;;;5.75;3.33;;;-0.90;99.90;;;;;;5051337;28;20028;-72
2022/01/27 10:19:54;;;;;;;10.27;3.90;;;-1.00;99.90;;;;;;5051534;28;20117;-75
2022/01/27 10:22:20;;;;;;;10.07;3.85;;;-1.00;99.90;;;;;;5051619;28;20048;-73
2022/01/27 10:24:58;;;;;;;10.65;4.35;;;-0.90;99.90;;;;;;5051555;28;20060;-76
2022/01/27 10:32:54;;;;;;;7.43;3.70;;;-1.00;99.90;;;;;;5051316;28;20039;-75
2022/01/27 10:35:26;;;;;;;8.27;3.63;;;-1.00;99.90;;;;;;5051144;28;20021;-75
2022/01/27 10:37:53;;;;;;;5.60;3.50;;;-1.10;99.90;;;;;;5050370;28;20765;-75
2022/01/27 10:40:28;;;;;;;8.70;4.25;;;-1.10;99.90;;;;;;5051559;28;20534;-75
2022/01/27 10:43:15;;;;;;;8.95;3.95;;;-1.10;99.90;;;;;;5051436;28;20071;-75
2022/01/27 10:46:20;;;;;;;6.43;3.38;;;-1.10;99.90;;;;;;5054802;28;20068;-75
2022/01/27 10:49:27;;;;;;;6.15;3.50;;;-1.10;99.90;;;;;;5055097;28;20025;-72
2022/01/27 10:51:48;;;;;;;7.38;3.55;;;-1.20;99.90;;;;;;5050915;28;20052;-75
2022/01/27 10:54:20;;;;;;;7.93;3.33;;;-1.20;99.90;;;;;;5054987;28;20164;-76
2022/01/27 10:56:46;;;;;;;6.95;3.25;;;-1.20;99.90;;;;;;5054854;28;20020;-76
2022/01/27 10:59:14;;;;;;;7.15;3.50;;;-1.30;99.90;;;;;;5055192;28;20055;-75
2022/01/27 11:01:42;;;;;;;6.68;3.50;;;-1.40;99.90;;;;;;5054935;28;20017;-75
2022/01/27 11:04:10;;;;;;;7.60;3.75;;;-1.40;99.90;;;;;;5051648;28;20103;-79
2022/01/27 11:06:51;;;;;;;6.00;3.25;;;-1.40;99.90;;;;;;5053713;28;20021;-79
2022/01/27 11:09:17;;;;;;;9.18;3.40;;;-1.40;99.90;;;;;;5055279;28;20025;-79
2022/01/27 11:11:44;;;;;;;9.38;3.30;;;-1.50;99.90;;;;;;5055161;28;20100;-79
2022/01/27 11:14:10;;;;;;;9.65;3.45;;;-1.50;99.90;;;;;;5054683;28;20475;-79
2022/01/27 11:16:39;;;;;;;9.38;3.58;;;-1.50;99.90;;;;;;5055138;28;20025;-79
2022/01/27 11:21:41;;;;;;;7.13;3.55;;;-1.50;99.90;;;;;;5055095;28;20060;-79
2022/01/27 11:24:23;;;;;;;8.93;3.20;;;-1.60;99.90;;;;;;5054393;28;20530;-79
2022/01/27 11:26:53;;;;;;;4.93;3.17;;;-1.50;99.90;;;;;;5054293;28;20036;-75
2022/01/27 11:29:21;;;;;;;5.60;3.30;;;-0.20;99.90;;;;;;5054460;28;20270;-73
2022/01/27 11:32:12;;;;;;;6.07;3.40;;;0.30;99.90;;;;;;5054628;28;20071;-73
2022/01/27 11:35:17;;;;;;;6.50;3.50;;;-0.20;99.90;;;;;;5054011;28;20079;-72
2022/01/27 11:37:52;;;;;;;8.77;3.55;;;-0.60;99.90;;;;;;5050364;28;20041;-73
2022/01/27 11:40:20;;;;;;;5.15;3.10;;;-0.80;99.90;;;;;;5051517;28;20035;-73
2022/01/27 11:42:54;;;;;;;6.45;3.35;;;-0.90;99.90;;;;;;5054109;28;20021;-74
2022/01/27 11:45:23;;;;;;;7.22;3.65;;;-1.10;99.90;;;;;;5053026;28;20025;-75
2022/01/27 11:47:54;;;;;;;6.72;3.22;;;-1.10;99.90;;;;;;5053085;28;20572;-74
2022/01/27 11:50:38;;;;;;;8.38;3.63;;;-1.20;99.90;;;;;;5053511;28;20052;-75
2022/01/27 11:53:10;;;;;;;8.00;3.60;;;-1.20;99.90;;;;;;5053981;28;20576;-74
2022/01/27 11:55:36;;;;;;;5.90;3.28;;;-1.20;99.90;;;;;;5053472;28;20476;-74
2022/01/27 11:58:22;;;;;;;7.00;3.42;;;-1.20;99.90;;;;;;5053669;28;20027;-75
2022/01/27 12:01:03;;;;;;;6.65;3.28;;;-1.20;99.90;;;;;;5053952;28;20100;-75
2022/01/27 12:03:29;;;;;;;12.30;4.07;;;-1.20;99.90;;;;;;5053761;28;20032;-75
2022/01/27 12:06:14;;;;;;;6.88;3.28;;;-1.20;99.90;;;;;;5053552;28;20064;-75
2022/01/27 12:08:40;;;;;;;6.80;3.72;;;-1.10;99.90;;;;;;5053299;28;20061;-75
2022/01/27 12:11:09;;;;;;;10.18;3.88;;;-1.10;99.90;;;;;;5052634;28;20110;-75
2022/01/27 12:13:43;;;;;;;9.98;3.85;;;-1.10;99.90;;;;;;5051243;28;20020;-74
2022/01/27 12:19:04;;;;;;;7.53;4.25;;;-1.10;99.90;;;;;;5053191;28;20040;-74
2022/01/27 12:21:48;;;;;;;10.82;3.83;;;-1.00;99.90;;;;;;5050029;28;20024;-74
2022/01/27 12:27:02;;;;;;;10.63;4.38;;;-1.00;99.90;;;;;;5050232;28;20104;-81
2022/01/27 12:29:45;;;;;;;8.13;3.60;;;-1.00;99.90;;;;;;5049910;28;20013;-78
2022/01/27 12:32:17;;;;;;;7.63;3.92;;;-1.00;99.90;;;;;;5045871;28;20036;-77
2022/01/27 12:35:04;;;;;;;7.78;3.65;;;-1.00;99.90;;;;;;5053244;28;20652;-77
2022/01/27 12:37:34;;;;;;;10.80;4.68;;;-1.00;99.90;;;;;;5052859;28;20041;-80
2022/01/27 12:40:07;;;;;;;12.57;3.75;;;-1.00;99.90;;;;;;5049593;28;20032;-73
2022/01/27 12:42:36;;;;;;;9.15;4.60;;;-0.90;99.90;;;;;;5052806;28;20052;-74
2022/01/27 12:45:11;;;;;;;8.77;4.57;;;-0.90;99.90;;;;;;5052560;28;20098;-73
2022/01/27 12:47:39;;;;;;;6.13;3.55;;;-0.90;99.90;;;;;;5050114;28;20375;-74
2022/01/27 12:50:18;;;;;;;11.98;4.28;;;-0.20;99.90;;;;;;5052710;28;20078;-73
2022/01/27 12:52:47;;;;;;;6.60;3.65;;;-0.10;99.90;;;;;;5052796;28;20037;-74
2022/01/27 12:55:21;;;;;;;8.13;4.03;;;-0.20;99.90;;;;;;5051230;28;20476;-73
2022/01/27 12:58:10;;;;;;;8.40;4.45;;;-0.40;99.90;;;;;;5052724;28;20029;-73
2022/01/27 13:00:50;;;;;;;9.55;4.43;;;-0.60;99.90;;;;;;5052565;28;20021;-73
2022/01/27 13:03:16;;;;;;;10.97;4.27;;;-0.70;99.90;;;;;;5041381;28;20132;-73
2022/01/27 13:05:49;;;;;;;13.55;4.57;;;-0.70;99.90;;;;;;5050427;28;20206;-74
2022/01/27 13:08:17;;;;;;;11.98;5.20;;;-0.70;99.90;;;;;;5050849;28;20029;-73
2022/01/27 13:10:49;;;;;;;12.80;5.25;;;-0.70;99.90;;;;;;5052343;28;20021;-74
2022/01/27 13:13:21;;;;;;;10.82;4.82;;;-0.70;99.90;;;;;;5052251;28;20035;-73
2022/01/27 13:15:54;;;;;;;14.90;5.13;;;-0.70;99.90;;;;;;5052382;28;20029;-73
2022/01/27 13:18:27;;;;;;;7.88;3.38;;;-0.70;99.90;;;;;;5052442;28;20029;-73
2022/01/27 13:20:56;;;;;;;9.82;4.85;;;-0.60;99.90;;;;;;5052314;28;20108;-71
2022/01/27 13:25:53;;;;;;;11.95;4.78;;;-0.20;99.90;;;;;;5052536;28;20037;-70
2022/01/27 13:28:22;;;;;;;9.98;4.30;;;-0.30;99.90;;;;;;5052267;28;20032;-71
2022/01/27 13:30:52;;;;;;;10.32;5.28;;;-0.40;99.90;;;;;;5051915;28;20025;-71
2022/01/27 13:33:20;;;;;;;8.85;4.15;;;-0.40;99.90;;;;;;5051557;28;20070;-71
2022/01/27 13:35:47;;;;;;;7.93;3.70;;;-0.50;99.90;;;;;;5051974;28;20029;-71
2022/01/27 13:38:21;;;;;;;9.70;4.10;;;-0.50;99.90;;;;;;5051116;28;20128;-71
2022/01/27 13:43:39;;;;;;;9.93;4.15;;;-0.40;99.90;;;;;;5047591;28;20070;-70
2022/01/27 13:46:05;;;;;;;11.55;4.40;;;-0.40;99.90;;;;;;5050982;28;20633;-70
2022/01/27 13:48:40;;;;;;;9.85;4.53;;;-0.40;99.90;;;;;;5051579;28;20021;-76
2022/01/27 13:51:06;;;;;;;10.10;5.32;;;-0.40;99.90;;;;;;5048626;28;20086;-78
2022/01/27 13:53:31;;;;;;;10.82;5.20;;;-0.40;99.90;;;;;;5050815;28;20468;-78
2022/01/27 13:56:04;;;;;;;11.32;4.47;;;-0.40;99.90;;;;;;5050779;28;20527;-78
2022/01/27 13:58:30;;;;;;;7.70;3.88;;;-0.30;99.90;;;;;;5047035;28;20404;-79
2022/01/27 14:01:04;;;;;;;11.82;4.60;;;-0.40;99.90;;;;;;5032300;28;20036;-77
2022/01/27 14:03:40;;;;;;;5.85;3.35;;;-0.40;99.90;;;;;;5042907;28;20047;-78
2022/01/27 14:06:06;;;;;;;8.50;4.35;;;-0.20;99.90;;;;;;5041233;28;20395;-80
2022/01/27 14:08:41;;;;;;;8.27;3.97;;;0.10;99.90;;;;;;5050453;28;20116;-81
2022/01/27 14:11:08;;;;;;;11.90;4.57;;;0.30;99.90;;;;;;5050457;28;20384;-80
2022/01/27 14:13:34;;;;;;;8.80;4.65;;;0.20;99.90;;;;;;5050989;28;20068;-81
2022/01/27 14:16:00;;;;;;;8.48;4.55;;;0.00;99.90;;;;;;5051608;28;20029;-80
2022/01/27 14:18:43;;;;;;;8.88;4.38;;;0.00;99.90;;;;;;5051653;28;20033;-81
2022/01/27 14:21:09;;;;;;;7.35;3.97;;;-0.10;99.90;;;;;;5055499;28;20111;-81
2022/01/27 14:23:44;;;;;;;8.05;3.75;;;-0.20;99.90;;;;;;5051733;28;20009;-81
2022/01/27 14:29:01;;;;;;;8.05;3.90;;;-0.20;99.90;;;;;;5052679;28;20132;-80
2022/01/27 14:31:27;;;;;;;8.82;4.22;;;-0.20;99.90;;;;;;5053566;28;20357;-81
2022/01/27 14:33:53;;;;;;;9.00;4.20;;;-0.30;99.90;;;;;;5055725;28;20021;-81
2022/01/27 14:36:19;;;;;;;8.52;4.45;;;-0.20;99.90;;;;;;5055130;28;20029;-81
2022/01/27 14:38:45;;;;;;;6.82;4.47;;;-0.20;99.90;;;;;;5055100;28;20060;-81
2022/01/27 14:41:11;;;;;;;5.88;3.55;;;-0.20;99.90;;;;;;5055508;28;20021;-80
2022/01/27 14:43:39;;;;;;;7.95;3.92;;;-0.30;99.90;;;;;;5055401;28;20052;-80
2022/01/27 14:46:06;;;;;;;8.27;4.32;;;-0.40;99.90;;;;;;5054340;28;20486;-81
2022/01/27 14:48:34;;;;;;;8.35;3.92;;;-0.40;99.90;;;;;;5052024;28;20049;-81
2022/01/27 14:51:01;;;;;;;6.65;4.07;;;-0.40;99.90;;;;;;5051840;28;20044;-81
2022/01/27 14:53:27;;;;;;;6.97;3.75;;;-0.50;99.90;;;;;;5054657;28;20365;-81
2022/01/27 14:55:52;;;;;;;9.98;4.70;;;-0.50;99.90;;;;;;5053016;28;20027;-80
2022/01/27 14:58:18;;;;;;;10.38;4.72;;;-0.40;99.90;;;;;;5051045;28;20036;-81
2022/01/27 15:00:44;;;;;;;7.32;4.20;;;-0.40;99.90;;;;;;5054340;28;20479;-81
2022/01/27 15:03:10;;;;;;;9.00;4.57;;;-0.30;99.90;;;;;;5054261;28;20488;-81
2022/01/27 15:05:36;;;;;;;12.38;4.30;;;-0.30;99.90;;;;;;5054644;28;20017;-80
2022/01/27 15:08:02;;;;;;;9.02;4.13;;;-0.30;99.90;;;;;;5054848;28;20028;-81